Time;durP1;ratioP1;P1;durP2;ratioP2;P2;SDS_P1;SDS_P2;PMS_P1;PMS_P2;Temp;Humidity;BMP_temperature;BMP_pressure;BME280_temperature;BME280_humidity;BME280_pressure;Samples;Min_cycle;Max_cycle;Signal;HPM_P1;HPM_P2
2021/11/15 00:01:11;;;;;;;;;;;;;;;;;;;;;
2021/11/15 00:04:18;;;;;;;;;;;;;;;;;;;;;
2021/11/15 00:07:19;;;;;;;;;;;;;;;;;;;;;
2021/11/15 00:10:53;;;;;;;23.30;17.38;;;10.00;92.80;;;;;;6133833;23;20028;-94
2021/11/15 00:19:24;;;;;;;23.73;17.38;;;9.90;92.90;;;;;;6125720;23;20053;-92
2021/11/15 00:22:03;;;;;;;22.42;17.98;;;9.90;92.90;;;;;;6093303;23;20085;-92
2021/11/15 00:24:44;;;;;;;23.85;17.65;;;9.90;92.90;;;;;;6110835;23;20004;-92
2021/11/15 00:27:25;;;;;;;;;;;;;;;;;;;;;
2021/11/15 00:30:06;;;;;;;23.35;17.17;;;9.90;93.30;;;;;;6111087;23;20037;-91
2021/11/15 00:33:06;;;;;;;;;;;;;;;;;;;;;
2021/11/15 00:35:45;;;;;;;;;;;;;;;;;;;;;
2021/11/15 00:38:43;;;;;;;25.63;18.52;;;9.90;93.00;;;;;;6116839;23;20092;-92
2021/11/15 00:41:39;;;;;;;24.75;18.25;;;9.90;93.00;;;;;;6098376;23;20009;-91
2021/11/15 00:44:22;;;;;;;23.52;18.13;;;9.90;93.00;;;;;;6134380;23;19998;-94
2021/11/15 00:47:35;;;;;;;24.38;17.33;;;9.80;92.90;;;;;;6130813;23;20068;-93
2021/11/15 00:53:21;;;;;;;;;;;;;;;;;;;;;
2021/11/15 00:55:56;;;;;;;23.63;16.80;;;9.80;92.90;;;;;;6142044;23;20029;-92
2021/11/15 00:58:45;;;;;;;;;;;;;;;;;;;;;
2021/11/15 01:01:42;;;;;;;;;;;;;;;;;;;;;
2021/11/15 01:04:25;;;;;;;;;;;;;;;;;;;;;
2021/11/15 01:07:03;;;;;;;23.80;17.42;;;9.80;93.10;;;;;;6162430;23;20040;-92
2021/11/15 01:09:45;;;;;;;22.50;16.27;;;9.70;93.00;;;;;;6136489;23;20117;-91
2021/11/15 01:15:49;;;;;;;22.23;15.85;;;9.80;93.00;;;;;;6107224;23;20474;-91
2021/11/15 01:18:44;;;;;;;23.95;16.40;;;9.70;93.00;;;;;;6110643;23;20029;-90
2021/11/15 01:21:44;;;;;;;20.77;16.02;;;9.70;93.00;;;;;;6135494;23;20006;-91
2021/11/15 01:24:14;;;;;;;21.77;15.90;;;9.70;92.90;;;;;;6156023;23;20008;-92
2021/11/15 01:26:50;;;;;;;23.42;17.65;;;9.80;92.90;;;;;;6165943;23;20060;-90
2021/11/15 01:29:59;;;;;;;;;;;;;;;;;;;;;
2021/11/15 01:33:14;;;;;;;20.75;15.88;;;9.60;92.80;;;;;;6140432;23;20047;-94
2021/11/15 01:35:47;;;;;;;22.77;16.77;;;9.60;92.80;;;;;;6164556;23;20018;-94
2021/11/15 01:38:52;;;;;;;;;;;;;;;;;;;;;
2021/11/15 01:41:51;;;;;;;23.38;17.73;;;9.60;92.90;;;;;;6141713;23;20017;-92
2021/11/15 01:44:49;;;;;;;24.40;17.02;;;9.60;92.80;;;;;;6162828;23;20010;-92
2021/11/15 01:47:23;;;;;;;23.55;18.08;;;9.60;92.80;;;;;;6148685;23;19993;-91
2021/11/15 01:50:18;;;;;;;22.20;17.13;;;9.50;92.70;;;;;;6159077;23;19993;-92
2021/11/15 01:53:17;;;;;;;;;;;;;;;;;;;;;
2021/11/15 01:56:02;;;;;;;25.20;18.48;;;9.50;92.90;;;;;;6149822;23;19998;-92
2021/11/15 01:58:52;;;;;;;24.98;18.25;;;9.50;92.90;;;;;;6148469;23;20434;-93
2021/11/15 02:04:37;;;;;;;;;;;;;;;;;;;;;
2021/11/15 02:07:10;;;;;;;25.17;19.92;;;9.50;93.00;;;;;;6161152;23;20037;-93
2021/11/15 02:09:51;;;;;;;23.02;18.08;;;9.50;92.90;;;;;;6112481;23;20021;-91
2021/11/15 02:12:44;;;;;;;25.83;19.42;;;9.50;92.90;;;;;;6137236;23;20013;-94
2021/11/15 02:15:55;;;;;;;24.73;18.73;;;9.50;92.90;;;;;;6162570;23;20040;-91
2021/11/15 02:21:45;;;;;;;29.63;21.00;;;9.40;92.90;;;;;;6163546;23;20088;-93
2021/11/15 02:24:23;;;;;;;28.40;19.70;;;9.40;92.90;;;;;;6163768;23;20036;-92
2021/11/15 02:27:06;;;;;;;23.48;17.15;;;9.30;92.80;;;;;;6138139;23;20010;-93
2021/11/15 02:29:55;;;;;;;24.75;18.85;;;9.40;92.90;;;;;;6138463;23;20009;-93
2021/11/15 02:33:09;;;;;;;29.08;21.38;;;9.40;92.90;;;;;;6164322;23;20093;-91
2021/11/15 02:35:51;;;;;;;;;;;;;;;;;;;;;
2021/11/15 02:38:51;;;;;;;24.50;18.70;;;9.30;92.90;;;;;;6142058;23;20397;-90
2021/11/15 02:41:47;;;;;;;;;;;;;;;;;;;;;
2021/11/15 02:44:48;;;;;;;32.90;20.63;;;9.30;92.90;;;;;;6134834;23;20033;-90
2021/11/15 02:47:16;;;;;;;28.30;20.10;;;9.30;93.00;;;;;;6095709;23;20012;-91
2021/11/15 02:50:00;;;;;;;27.35;20.25;;;9.40;93.00;;;;;;6138335;23;20354;-92
2021/11/15 02:55:44;;;;;;;29.10;20.42;;;9.30;93.00;;;;;;6134231;23;20004;-92
2021/11/15 02:58:26;;;;;;;27.38;20.45;;;9.30;93.10;;;;;;6129277;23;20341;-91
2021/11/15 03:01:31;;;;;;;;;;;;;;;;;;;;;
2021/11/15 03:04:03;;;;;;;29.83;20.55;;;9.20;93.10;;;;;;6132631;23;20037;-91
2021/11/15 03:06:39;;;;;;;30.13;21.58;;;9.20;93.20;;;;;;6084679;23;20002;-91
2021/11/15 03:09:17;;;;;;;29.02;21.65;;;9.20;93.30;;;;;;6131165;23;20029;-90
2021/11/15 03:11:56;;;;;;;;;;;;;;;;;;;;;
2021/11/15 03:17:54;;;;;;;28.70;21.17;;;9.30;93.30;;;;;;6134157;23;20053;-91
2021/11/15 03:20:30;;;;;;;27.27;20.67;;;9.40;93.20;;;;;;6087824;23;20006;-91
2021/11/15 03:23:23;;;;;;;29.52;22.40;;;9.30;93.20;;;;;;6120229;23;20013;-90
2021/11/15 03:26:02;;;;;;;;;;;;;;;;;;;;;
2021/11/15 03:28:44;;;;;;;;;;;;;;;;;;;;;
2021/11/15 03:32:10;;;;;;;;;;;;;;;;;;;;;
2021/11/15 03:34:38;;;;;;;31.48;23.52;;;9.20;93.20;;;;;;6140918;23;20325;-91
2021/11/15 03:37:29;;;;;;;30.98;23.00;;;9.20;93.30;;;;;;6113938;23;20014;-91
2021/11/15 03:40:08;;;;;;;31.73;22.40;;;9.20;93.30;;;;;;6160926;23;20012;-91
2021/11/15 03:42:54;;;;;;;33.55;23.30;;;9.20;93.30;;;;;;6114232;23;20005;-91
2021/11/15 03:45:49;;;;;;;35.05;26.45;;;9.30;93.30;;;;;;6163092;23;20073;-92
2021/11/15 03:48:51;;;;;;;;;;;;;;;;;;;;;
2021/11/15 03:51:31;;;;;;;;;;;;;;;;;;;;;
2021/11/15 03:54:35;;;;;;;;;;;;;;;;;;;;;
2021/11/15 03:57:11;;;;;;;34.50;24.45;;;9.20;93.10;;;;;;6162790;23;20398;-91
2021/11/15 04:03:19;;;;;;;;;;;;;;;;;;;;;
2021/11/15 04:06:22;;;;;;;33.28;25.08;;;9.20;93.10;;;;;;6163595;23;20036;-90
2021/11/15 04:09:22;;;;;;;32.28;24.15;;;9.20;93.20;;;;;;6156769;23;20446;-91
2021/11/15 04:12:14;;;;;;;32.95;24.77;;;9.20;93.20;;;;;;6138810;23;20033;-89
2021/11/15 04:18:08;;;;;;;34.00;25.13;;;9.20;93.30;;;;;;6151810;23;20099;-91
2021/11/15 04:21:12;;;;;;;32.03;24.30;;;9.30;93.20;;;;;;6161622;23;20009;-92
2021/11/15 04:23:47;;;;;;;44.22;30.33;;;9.30;93.20;;;;;;6161961;23;20006;-90
2021/11/15 04:26:36;;;;;;;39.08;28.13;;;9.20;92.90;;;;;;6161290;23;20029;-91
2021/11/15 04:29:30;;;;;;;39.90;26.95;;;9.20;93.00;;;;;;6126585;23;20002;-91
2021/11/15 04:31:56;;;;;;;38.25;28.35;;;9.10;93.10;;;;;;6139190;23;20001;-90
2021/11/15 04:34:34;;;;;;;37.70;27.10;;;9.10;93.10;;;;;;6139097;23;20088;-91
2021/11/15 04:37:05;;;;;;;35.05;25.42;;;9.00;93.20;;;;;;6139977;23;20025;-91
2021/11/15 04:40:05;;;;;;;36.30;26.35;;;9.10;93.30;;;;;;6138493;23;20005;-92
2021/11/15 04:43:24;;;;;;;33.30;24.80;;;9.10;93.20;;;;;;6164729;23;20009;-91
2021/11/15 04:46:13;;;;;;;;;;;;;;;;;;;;;
2021/11/15 04:49:04;;;;;;;34.20;24.63;;;9.10;93.20;;;;;;6143036;23;20033;-91
2021/11/15 04:51:35;;;;;;;;;;;9.10;93.20;;;;;;6166192;23;20010;-91
2021/11/15 04:54:25;;;;;;;32.58;24.17;;;9.10;93.20;;;;;;6140641;23;19905;-91
2021/11/15 04:57:19;;;;;;;;;;;;;;;;;;;;;
2021/11/15 05:00:18;;;;;;;;;;;;;;;;;;;;;
2021/11/15 05:04:04;;;;;;;29.80;23.25;;;9.10;93.00;;;;;;6174285;23;20057;-91
2021/11/15 05:09:56;;;;;;;32.10;23.77;;;9.10;93.20;;;;;;6174299;23;20014;-91
2021/11/15 05:12:37;;;;;;;;;;;;;;;;;;;;;
2021/11/15 05:15:31;;;;;;;31.77;23.60;;;9.00;92.90;;;;;;6141764;23;20257;-89
2021/11/15 05:18:02;;;;;;;30.50;23.20;;;9.00;92.90;;;;;;6141346;23;20009;-91
2021/11/15 05:20:50;;;;;;;31.65;23.63;;;9.00;92.90;;;;;;6139427;23;20084;-91
2021/11/15 05:23:32;;;;;;;;;;;;;;;;;;;;;
2021/11/15 05:26:07;;;;;;;31.50;23.65;;;9.00;93.00;;;;;;6142583;23;20032;-92
2021/11/15 05:29:14;;;;;;;30.30;22.50;;;9.00;93.00;;;;;;6139389;23;20001;-92
2021/11/15 05:31:48;;;;;;;28.92;22.50;;;9.00;93.10;;;;;;6140453;23;20006;-92
2021/11/15 05:34:44;;;;;;;;;;;;;;;;;;;;;
2021/11/15 05:37:50;;;;;;;;;;;;;;;;;;;;;
2021/11/15 05:40:36;;;;;;;27.35;21.15;;;9.10;93.10;;;;;;6136608;23;20033;-91
2021/11/15 05:43:22;;;;;;;;;;;;;;;;;;;;;
2021/11/15 05:46:03;;;;;;;;;;;;;;;;;;;;;
2021/11/15 05:48:45;;;;;;;;;;;9.10;93.00;;;;;;6110420;23;20045;-93
2021/11/15 05:54:34;;;;;;;32.50;23.52;;;9.10;92.90;;;;;;6117844;23;20017;-90
2021/11/15 05:57:33;;;;;;;;;;;;;;;;;;;;;
2021/11/15 06:03:12;;;;;;;31.88;22.33;;;9.00;93.00;;;;;;6136913;23;20060;-90
2021/11/15 06:06:00;;;;;;;31.88;22.95;;;9.10;93.10;;;;;;6086609;23;20021;-89
2021/11/15 06:08:38;;;;;;;27.35;21.15;;;9.10;93.10;;;;;;6084451;23;20333;-94
2021/11/15 06:11:45;;;;;;;32.25;23.88;;;9.10;93.10;;;;;;6109132;23;20411;-92
2021/11/15 06:14:29;;;;;;;;;;;;;;;;;;;;;
2021/11/15 06:16:58;;;;;;;33.95;25.65;;;9.00;92.90;;;;;;6133310;23;20006;-89
2021/11/15 06:19:26;;;;;;;31.58;22.92;;;9.00;93.00;;;;;;6108150;23;20030;-88
2021/11/15 06:21:54;;;;;;;30.20;21.95;;;9.00;93.10;;;;;;6107555;23;20022;-87
2021/11/15 06:24:38;;;;;;;31.92;23.65;;;9.00;93.10;;;;;;6134978;23;20383;-89
2021/11/15 06:27:07;;;;;;;33.38;23.67;;;9.00;93.20;;;;;;6109972;23;20097;-88
2021/11/15 06:29:32;;;;;;;33.78;24.33;;;9.00;93.20;;;;;;6084306;23;20009;-88
2021/11/15 06:32:10;;;;;;;32.17;24.00;;;9.00;93.20;;;;;;6107662;23;20009;-87
2021/11/15 06:35:03;;;;;;;30.13;21.92;;;9.00;93.30;;;;;;6086289;23;20054;-89
2021/11/15 06:38:12;;;;;;;;;;;;;;;;;;;;;
2021/11/15 06:41:57;;;;;;;;;;;;;;;;;;;;;
2021/11/15 06:50:57;;;;;;;;;;;9.00;93.40;;;;;;6117988;23;20010;-90
2021/11/15 06:53:36;;;;;;;;;;;;;;;;;;;;;
2021/11/15 06:56:46;;;;;;;27.45;19.88;;;9.00;93.40;;;;;;6109560;23;20369;-94
2021/11/15 06:59:38;;;;;;;31.77;20.20;;;9.00;93.50;;;;;;6089019;23;20017;-92
2021/11/15 07:02:25;;;;;;;;;;;;;;;;;;;;;
2021/11/15 07:04:57;;;;;;;26.60;19.15;;;8.90;93.50;;;;;;6110702;23;20041;-90
2021/11/15 07:07:35;;;;;;;27.77;18.67;;;8.90;93.60;;;;;;6084215;23;19990;-93
2021/11/15 07:13:40;;;;;;;30.85;20.65;;;8.90;93.80;;;;;;6129136;23;20033;-93
2021/11/15 07:16:41;;;;;;;30.25;19.90;;;8.90;93.80;;;;;;6106693;23;20016;-91
2021/11/15 07:19:17;;;;;;;29.35;19.58;;;8.80;93.70;;;;;;6088906;23;20013;-91
2021/11/15 07:25:31;;;;;;;24.42;17.00;;;8.80;93.90;;;;;;6123817;23;20005;-91
2021/11/15 07:28:15;;;;;;;;;;;;;;;;;;;;;
2021/11/15 07:31:08;;;;;;;;;;;;;;;;;;;;;
2021/11/15 07:33:56;;;;;;;23.75;16.95;;;8.80;93.90;;;;;;6133252;23;20030;-91
2021/11/15 07:36:43;;;;;;;;;;;;;;;;;;;;;
2021/11/15 07:39:42;;;;;;;;;;;;;;;;;;;;;
2021/11/15 07:46:20;;;;;;;23.05;15.13;;;8.80;93.70;;;;;;6133385;23;20010;-92
2021/11/15 07:49:00;;;;;;;20.92;14.80;;;8.70;93.70;;;;;;6129550;23;20362;-93
2021/11/15 07:51:57;;;;;;;21.13;14.38;;;8.70;93.70;;;;;;6132283;23;19998;-92
2021/11/15 07:54:57;;;;;;;19.35;13.68;;;8.60;93.80;;;;;;6085133;23;20006;-90
2021/11/15 07:57:38;;;;;;;;;;;;;;;;;;;;;
2021/11/15 08:00:42;;;;;;;;;;;;;;;;;;;;;
2021/11/15 08:07:03;;;;;;;20.13;13.90;;;8.60;93.80;;;;;;6112224;23;20010;-92
2021/11/15 08:09:46;;;;;;;23.67;15.15;;;8.60;94.00;;;;;;6129599;23;19993;-92
2021/11/15 08:12:32;;;;;;;19.52;13.77;;;8.50;93.90;;;;;;6088138;23;20010;-93
2021/11/15 08:15:08;;;;;;;20.20;13.35;;;8.50;93.90;;;;;;6120214;23;20022;-93
2021/11/15 08:18:05;;;;;;;18.83;12.73;;;8.40;93.90;;;;;;6130575;23;20034;-94
2021/11/15 08:20:45;;;;;;;18.95;12.90;;;8.40;94.10;;;;;;6149839;23;20014;-92
2021/11/15 08:23:53;;;;;;;18.10;12.35;;;8.40;94.10;;;;;;6124847;23;20085;-92
2021/11/15 08:27:14;;;;;;;20.45;12.32;;;8.40;94.10;;;;;;6134625;23;20006;-92
2021/11/15 08:30:03;;;;;;;;;;;;;;;;;;;;;
2021/11/15 08:32:42;;;;;;;;;;;;;;;;;;;;;
2021/11/15 08:35:34;;;;;;;14.75;10.20;;;8.40;94.00;;;;;;6073527;23;20075;-91
2021/11/15 08:38:39;;;;;;;15.95;10.23;;;8.50;94.00;;;;;;6112278;23;20093;-92
2021/11/15 08:41:14;;;;;;;15.65;10.82;;;8.50;94.10;;;;;;6163058;23;20005;-93
2021/11/15 08:43:56;;;;;;;16.10;11.48;;;8.60;94.00;;;;;;6117419;23;20009;-92
2021/11/15 08:47:18;;;;;;;;;;;;;;;;;;;;;
2021/11/15 08:50:45;;;;;;;17.33;11.52;;;8.50;94.00;;;;;;6166045;23;20001;-92
2021/11/15 08:53:54;;;;;;;20.95;13.45;;;8.50;94.40;;;;;;6148966;23;20444;-93
2021/11/15 08:56:36;;;;;;;19.50;12.77;;;8.50;94.10;;;;;;6164197;23;20005;-92
2021/11/15 09:09:40;;;;;;;;;;;;;;;;;;;;;
2021/11/15 09:12:15;;;;;;;27.60;16.20;;;8.50;94.20;;;;;;6163853;23;20017;-93
2021/11/15 09:14:55;;;;;;;;;;;;;;;;;;;;;
2021/11/15 09:18:11;;;;;;;23.92;15.00;;;8.50;94.30;;;;;;6163898;23;20052;-92
2021/11/15 09:20:50;;;;;;;24.92;16.00;;;8.50;94.30;;;;;;6132363;23;20009;-92
2021/11/15 09:23:39;;;;;;;;;;;;;;;;;;;;;
2021/11/15 09:26:43;;;;;;;25.92;16.75;;;8.50;94.40;;;;;;6140797;23;20037;-93
2021/11/15 09:29:34;;;;;;;;;;;;;;;;;;;;;
2021/11/15 09:35:29;;;;;;;;;;;;;;;;;;;;;
2021/11/15 09:38:01;;;;;;;29.13;18.63;;;8.30;94.40;;;;;;6163693;23;20045;-93
2021/11/15 09:40:57;;;;;;;;;;;;;;;;;;;;;
2021/11/15 09:47:17;;;;;;;31.08;19.92;;;8.40;94.60;;;;;;6154096;23;20073;-92
2021/11/15 09:54:12;;;;;;;29.10;18.33;;;8.40;94.50;;;;;;6184616;23;19993;-92
2021/11/15 09:56:37;;;;;;;28.30;18.13;;;8.40;94.60;;;;;;6123250;23;20524;-94
2021/11/15 10:10:44;;;;;;;;;;;;;;;;;;;;;
2021/11/15 10:13:57;;;;;;;28.50;14.88;;;8.40;94.60;;;;;;6041510;23;20008;-93
2021/11/15 10:17:22;;;;;;;;;;;;;;;;;;;;;
2021/11/15 10:20:39;;;;;;;;;;;;;;;;;;;;;
2021/11/15 10:23:34;;;;;;;24.70;15.43;;;8.40;94.60;;;;;;6073586;23;20022;-94
2021/11/15 10:29:56;;;;;;;;;;;;;;;;;;;;;
2021/11/15 10:43:11;;;;;;;;;;;;;;;;;;;;;
2021/11/15 10:46:37;;;;;;;;;;;;;;;;;;;;;
2021/11/15 10:49:34;;;;;;;25.60;14.40;;;8.20;94.50;;;;;;6103927;23;20034;-94
2021/11/15 10:52:33;;;;;;;25.67;15.40;;;8.20;94.50;;;;;;6075501;23;20041;-93
2021/11/15 10:55:45;;;;;;;25.88;15.10;;;8.20;94.50;;;;;;6079440;23;19990;-92
2021/11/15 10:58:40;;;;;;;26.05;15.57;;;8.20;94.50;;;;;;6097104;23;20022;-94
2021/11/15 11:04:49;;;;;;;;;;;;;;;;;;;;;
2021/11/15 11:07:31;;;;;;;28.30;16.42;;;8.10;94.40;;;;;;6162775;23;20375;-93
2021/11/15 11:14:09;;;;;;;33.50;18.48;;;8.10;94.60;;;;;;6147715;23;20383;-93
2021/11/15 11:18:11;;;;;;;29.92;17.92;;;8.00;94.70;;;;;;6162649;23;20041;-93
2021/11/15 11:34:06;;;;;;;;;;;;;;;;;;;;;
2021/11/15 11:36:59;;;;;;;29.42;17.88;;;8.20;94.80;;;;;;6157317;23;20009;-91
2021/11/15 11:47:00;;;;;;;;;;;;;;;;;;;;;
2021/11/15 11:53:28;;;;;;;;;;;;;;;;;;;;;
2021/11/15 11:56:26;;;;;;;24.95;15.40;;;8.20;94.60;;;;;;6161593;23;20032;-92
2021/11/15 11:59:37;;;;;;;27.73;16.00;;;8.20;94.70;;;;;;6137932;23;20021;-91
2021/11/15 12:02:39;;;;;;;27.60;16.83;;;8.20;94.70;;;;;;6162741;23;20006;-91
2021/11/15 12:05:22;;;;;;;25.58;15.57;;;8.20;94.70;;;;;;6107357;23;20498;-91
2021/11/15 12:15:12;;;;;;;;;;;;;;;;;;;;;
2021/11/15 12:18:25;;;;;;;;;;;;;;;;;;;;;
2021/11/15 12:21:24;;;;;;;;;;;;;;;;;;;;;
2021/11/15 12:27:09;;;;;;;23.50;15.20;;;8.20;94.70;;;;;;6158625;23;20044;-92
2021/11/15 12:43:29;;;;;;;25.38;15.25;;;8.30;94.60;;;;;;6162986;23;20428;-91
2021/11/15 12:49:54;;;;;;;26.15;15.27;;;8.30;94.30;;;;;;6151100;23;20010;-90
2021/11/15 12:52:42;;;;;;;28.75;16.48;;;8.20;93.90;;;;;;6165314;23;20006;-92
2021/11/15 12:58:58;;;;;;;24.67;14.77;;;8.10;93.90;;;;;;6175805;23;20001;-93
2021/11/15 13:01:48;;;;;;;23.45;14.45;;;8.10;94.00;;;;;;6163476;23;20013;-93
2021/11/15 13:05:13;;;;;;;24.45;15.15;;;8.10;93.90;;;;;;6135661;23;19997;-92
2021/11/15 13:08:09;;;;;;;;;;;;;;;;;;;;;
2021/11/15 13:14:30;;;;;;;30.45;17.88;;;8.10;93.80;;;;;;6143036;23;20309;-91
2021/11/15 13:17:28;;;;;;;;;;;;;;;;;;;;;
2021/11/15 13:23:30;;;;;;;33.72;19.88;;;8.10;93.60;;;;;;6143473;23;20446;-90
2021/11/15 13:26:16;;;;;;;34.88;19.45;;;8.10;93.70;;;;;;6165902;23;20012;-92
2021/11/15 13:29:15;;;;;;;30.25;17.88;;;8.10;93.70;;;;;;6165994;23;20001;-91
2021/11/15 13:36:05;;;;;;;;;;;;;;;;;;;;;
2021/11/15 14:07:16;;;;;;;;;;;;;;;;;;;;;
2021/11/15 14:10:54;;;;;;;;;;;;;;;;;;;;;
2021/11/15 14:24:16;;;;;;;;;;;8.20;93.50;;;;;;6076330;23;20115;-92
2021/11/15 14:27:32;;;;;;;;;;;;;;;;;;;;;
2021/11/15 14:37:30;;;;;;;38.90;20.92;;;8.00;93.40;;;;;;6057575;23;20037;-92
2021/11/15 14:43:47;;;;;;;33.53;19.25;;;8.10;93.40;;;;;;6112043;23;20016;-93
2021/11/15 14:46:32;;;;;;;;;;;;;;;;;;;;;
2021/11/15 14:52:36;;;;;;;31.08;19.98;;;8.10;93.40;;;;;;6143933;23;20006;-92
2021/11/15 14:56:44;;;;;;;32.83;19.27;;;8.20;93.50;;;;;;6162482;23;20013;-92
2021/11/15 15:02:23;;;;;;;;;;;;;;;;;;;;;
2021/11/15 15:18:55;;;;;;;33.58;19.35;;;8.00;93.40;;;;;;6058365;23;20025;-93
2021/11/15 15:31:44;;;;;;;;;;;;;;;;;;;;;
2021/11/15 15:34:19;;;;;;;30.70;16.77;;;7.90;92.80;;;;;;6103993;23;20030;-92
2021/11/15 15:39:52;;;;;;;31.90;18.27;;;7.90;92.80;;;;;;6092419;23;20022;-92
2021/11/15 15:46:26;;;;;;;;;;;;;;;;;;;;;
2021/11/15 15:49:22;;;;;;;;;;;;;;;;;;;;;
2021/11/15 15:53:03;;;;;;;;;;;;;;;;;;;;;
2021/11/15 15:55:41;;;;;;;36.53;19.02;;;7.80;92.70;;;;;;6148507;23;20064;-94
2021/11/15 15:58:26;;;;;;;;;;;;;;;;;;;;;
2021/11/15 16:32:26;;;;;;;;;;;;;;;;;;;;;
2021/11/15 16:39:03;;;;;;;;;;;;;;;;;;;;;
2021/11/15 16:42:07;;;;;;;59.03;30.58;;;8.00;92.60;;;;;;6270219;22;20030;-94
2021/11/15 16:44:51;;;;;;;62.05;29.65;;;7.90;92.50;;;;;;6277582;22;20034;-95
2021/11/15 16:48:16;;;;;;;;;;;;;;;;;;;;;
2021/11/15 16:54:18;;;;;;;61.45;31.15;;;7.90;92.60;;;;;;6218445;22;20039;-94
2021/11/15 16:57:24;;;;;;;60.42;29.90;;;7.90;92.60;;;;;;6267050;22;20515;-95
2021/11/15 17:00:43;;;;;;;;;;;;;;;;;;;;;
2021/11/15 17:03:41;;;;;;;;;;;;;;;;;;;;;
2021/11/15 17:12:42;;;;;;;71.50;34.92;;;8.00;92.60;;;;;;6254176;22;20008;-94
2021/11/15 17:19:07;;;;;;;64.30;31.92;;;7.90;92.40;;;;;;6125489;22;20000;-94
2021/11/15 17:21:56;;;;;;;68.57;32.58;;;7.90;92.50;;;;;;6259187;22;20054;-95
2021/11/15 17:28:48;;;;;;;;;;;;;;;;;;;;;
2021/11/15 17:47:39;;;;;;;;;;;;;;;;;;;;;
2021/11/15 18:00:20;;;;;;;47.83;23.95;;;7.80;92.40;;;;;;6133997;23;20166;-90
2021/11/15 18:03:23;;;;;;;49.10;25.20;;;7.80;92.40;;;;;;6132039;23;20084;-92
2021/11/15 18:09:25;;;;;;;48.97;24.20;;;7.90;92.30;;;;;;6238378;22;20059;-92
2021/11/15 18:11:59;;;;;;;52.55;26.25;;;7.90;92.40;;;;;;6259006;22;20011;-91
2021/11/15 18:17:53;;;;;;;;;;;;;;;;;;;;;
2021/11/15 18:21:09;;;;;;;;;;;;;;;;;;;;;
2021/11/15 18:24:03;;;;;;;44.50;22.35;;;7.90;92.20;;;;;;6268796;22;20062;-93
2021/11/15 18:30:28;;;;;;;;;;;;;;;;;;;;;
2021/11/15 18:32:55;;;;;;;39.50;21.67;;;7.70;92.00;;;;;;6284951;22;20090;-88
2021/11/15 19:42:50;;;;;;;;;;;;;;;;;;;;;
2021/11/15 20:07:19;;;;;;;;;;;;;;;;;;;;;
2021/11/15 20:21:28;;;;;;;;;;;;;;;;;;;;;
2021/11/15 20:27:47;;;;;;;36.47;21.17;;;7.60;91.40;;;;;;5987491;24;20028;-92
2021/11/15 21:24:36;;;;;;;;;;;;;;;;;;;;;
2021/11/15 21:30:35;;;;;;;;;;;;;;;;;;;;;
2021/11/15 21:40:25;;;;;;;39.75;23.30;;;7.60;91.50;;;;;;6131131;23;20009;-88
2021/11/15 21:43:08;;;;;;;41.67;23.50;;;7.60;91.50;;;;;;6093349;23;20014;-89
2021/11/15 21:45:49;;;;;;;;;;;;;;;;;;;;;
2021/11/15 21:48:32;;;;;;;36.35;22.05;;;7.60;91.60;;;;;;6202851;23;20001;-89
2021/11/15 21:51:10;;;;;;;40.47;22.65;;;7.60;91.70;;;;;;6168293;23;20067;-90
2021/11/15 21:56:51;;;;;;;38.22;22.17;;;7.60;91.60;;;;;;6197934;23;20481;-88
2021/11/15 21:59:47;;;;;;;39.20;24.23;;;7.60;91.60;;;;;;6193704;23;20076;-88
2021/11/15 22:02:48;;;;;;;;;;;;;;;;;;;;;
2021/11/15 22:05:50;;;;;;;;;;;;;;;;;;;;;
2021/11/15 22:08:40;;;;;;;42.25;25.40;;;7.60;91.70;;;;;;6233517;23;20007;-89
2021/11/15 22:11:35;;;;;;;;;;;;;;;;;;;;;
2021/11/15 22:14:09;;;;;;;45.55;25.85;;;7.60;91.60;;;;;;6240861;23;20009;-89
2021/11/15 22:16:50;;;;;;;40.70;25.23;;;7.60;91.50;;;;;;6194527;23;20017;-90
2021/11/15 22:19:36;;;;;;;;;;;7.50;91.50;;;;;;6171217;23;20011;-90
2021/11/15 22:22:15;;;;;;;;;;;;;;;;;;;;;
2021/11/15 22:25:05;;;;;;;;;;;;;;;;;;;;;
2021/11/15 22:27:40;;;;;;;41.25;24.20;;;7.50;91.40;;;;;;6241831;23;20009;-89
2021/11/15 22:30:34;;;;;;;41.70;25.15;;;7.50;91.40;;;;;;6213803;23;20009;-90
2021/11/15 22:33:30;;;;;;;44.15;26.23;;;7.50;91.40;;;;;;6193020;23;20023;-89
2021/11/15 22:39:42;;;;;;;43.28;26.27;;;7.50;91.50;;;;;;6195228;23;20144;-89
2021/11/15 22:42:22;;;;;;;42.72;26.30;;;7.50;91.50;;;;;;6191556;23;20000;-89
2021/11/15 22:45:05;;;;;;;;;;;;;;;;;;;;;
2021/11/15 22:51:31;;;;;;;;;;;;;;;;;;;;;
2021/11/15 22:54:31;;;;;;;41.45;25.00;;;7.60;91.40;;;;;;6206914;23;20016;-88
2021/11/15 22:57:10;;;;;;;43.28;25.05;;;7.60;91.40;;;;;;6229750;22;20004;-89
2021/11/15 22:59:52;;;;;;;;;;;;;;;;;;;;;
2021/11/15 23:05:24;;;;;;;44.70;25.80;;;7.50;91.30;;;;;;6258145;22;20368;-88
2021/11/15 23:08:02;;;;;;;44.40;27.60;;;7.50;91.20;;;;;;6252795;22;20010;-89
2021/11/15 23:10:34;;;;;;;44.65;26.45;;;7.40;91.30;;;;;;6252761;22;20429;-88
2021/11/15 23:13:26;;;;;;;44.03;26.45;;;7.50;91.30;;;;;;6252870;22;20702;-88
2021/11/15 23:16:24;;;;;;;44.60;24.58;;;7.40;91.40;;;;;;6234912;22;20082;-88
2021/11/15 23:19:13;;;;;;;;;;;;;;;;;;;;;
2021/11/15 23:28:16;;;;;;;39.90;24.13;;;7.50;91.30;;;;;;6233980;22;20022;-90
2021/11/15 23:30:52;;;;;;;40.08;23.77;;;7.40;91.30;;;;;;6283298;22;20045;-89
2021/11/15 23:33:30;;;;;;;39.78;23.80;;;7.40;91.30;;;;;;6283733;22;20000;-90
2021/11/15 23:36:04;;;;;;;44.58;26.08;;;7.50;91.40;;;;;;6286122;22;20033;-90
2021/11/15 23:38:55;;;;;;;44.38;25.27;;;7.50;91.40;;;;;;6285346;22;20008;-89
2021/11/15 23:41:27;;;;;;;39.70;24.98;;;7.50;91.40;;;;;;6283280;22;20043;-90
2021/11/15 23:44:18;;;;;;;42.55;25.33;;;7.50;91.40;;;;;;6282426;22;20007;-89
2021/11/15 23:47:01;;;;;;;44.80;25.38;;;7.40;91.40;;;;;;6282993;22;20329;-89
2021/11/15 23:49:40;;;;;;;43.22;23.98;;;7.40;91.40;;;;;;6262347;22;20003;-90
2021/11/15 23:52:15;;;;;;;39.10;23.17;;;7.40;91.50;;;;;;6286516;22;20064;-88
